Latest Weather Observations for Lucinda

IDQ60801

Issued at 6:52 am EST Monday 27 May 2024 (issued every 10 minutes, with the page automatically refreshed every 10 minutes)

About weather observations | Map of weather stations | Latest weather observations for QLD | Other Formats
Station Details ID: 032141 Name: LUCINDA POINT Lat: -18.52 Lon: 146.39 Height: 10.0 m
Data from the previous 72 hours. | See also: Recent months at Lucinda
Date/Time
EST
Temp
°C
App
Temp
°C
Dew
Point
°C
Rel
Hum
%
Delta-T
°C
Wind Press
QNH
hPa
Press
MSL
hPa
Rain since
9am
mm
Dir  Spd
km/h
Gust
km/h
Spd
kts
Gust
kts
27/06:30am - - - - - SSE 17 26 9 14 1018.3 1018.3 -
27/06:00am - - - - - SSE 15 24 8 13 1018.0 1018.0 -
27/05:30am - - - - - S 20 32 11 17 1017.3 1017.3 -
27/05:00am - - - - - S 19 35 10 19 1017.4 1017.4 -
27/04:30am - - - - - SSE 19 32 10 17 1017.5 1017.5 -
27/04:00am - - - - - SSE 17 28 9 15 1017.3 1017.3 -
27/03:30am - - - - - SE 22 41 12 22 1017.2 1017.2 -
27/03:00am - - - - - SE 19 33 10 18 1017.2 1017.2 -
27/02:30am - - - - - ESE 26 46 14 25 1017.6 1017.6 -
27/02:22am - - - - - ESE 28 46 15 25 1017.5 1017.5 -
27/02:00am - - - - - ESE 26 41 14 22 1017.6 1017.6 -
27/01:30am - - - - - ESE 26 43 14 23 1017.9 1017.9 -
27/01:00am - - - - - SE 26 37 14 20 1018.3 1018.3 -
27/12:30am - - - - - ESE 26 39 14 21 1018.6 1018.6 -
27/12:00am - - - - - ESE 28 46 15 25 1018.7 1018.7 -
 
Date/Time
EST
Temp
°C
App
Temp
°C
Dew
Point
°C
Rel
Hum
%
Delta-T
°C
Wind Press
QNH
hPa
Press
MSL
hPa
Rain since
9am
mm
Dir  Spd
km/h
Gust
km/h
Spd
kts
Gust
kts
26/11:43pm - - - - - ESE 28 46 15 25 1018.9 1018.9 -
26/11:30pm - - - - - SE 26 43 14 23 1019.2 1019.2 -
26/11:00pm - - - - - SE 22 43 12 23 1019.5 1019.5 -
26/10:49pm - - - - - ESE 28 46 15 25 1019.3 1019.3 -
26/10:30pm - - - - - ESE 28 43 15 23 1019.2 1019.2 -
26/10:00pm - - - - - ESE 22 35 12 19 1019.4 1019.4 -
26/09:30pm - - - - - SE 24 39 13 21 1019.2 1019.2 -
26/09:00pm - - - - - SE 20 32 11 17 1019.5 1019.5 -
26/08:30pm - - - - - SE 20 35 11 19 1019.4 1019.4 -
26/08:00pm - - - - - SE 20 33 11 18 1019.1 1019.1 -
26/07:30pm - - - - - ESE 19 33 10 18 1018.8 1018.8 -
26/07:00pm - - - - - SE 17 30 9 16 1018.3 1018.3 -
26/06:30pm - - - - - ESE 24 37 13 20 1018.3 1018.3 -
26/06:00pm - - - - - SE 22 39 12 21 1018.0 1018.0 -
26/05:30pm - - - - - SE 22 41 12 22 1017.7 1017.7 -
26/05:00pm - - - - - SE 19 32 10 17 1017.8 1017.8 -
26/04:30pm - - - - - SE 20 32 11 17 1017.8 1017.8 -
26/04:00pm - - - - - SE 19 32 10 17 1017.3 1017.3 -
26/03:30pm - - - - - SE 20 32 11 17 1016.7 1016.7 -
26/03:00pm - - - - - SE 20 33 11 18 1016.7 1016.7 -
26/02:30pm - - - - - SE 22 35 12 19 1017.0 1017.0 -
26/02:00pm - - - - - SSE 11 20 6 11 1017.2 1017.2 -
26/01:30pm - - - - - S 13 20 7 11 1017.4 1017.4 -
26/01:00pm - - - - - S 17 30 9 16 1017.9 1017.9 -
26/12:30pm - - - - - S 30 33 16 18 1018.1 1018.1 -
26/12:00pm - - - - - S 28 32 15 17 1018.6 1018.6 -
26/11:30am - - - - - S 28 33 15 18 1019.0 1019.0 -
26/11:00am - - - - - S 28 33 15 18 1019.3 1019.3 -
26/10:30am - - - - - S 28 30 15 16 1019.6 1019.6 -
26/10:00am - - - - - S 28 35 15 19 1019.7 1019.7 -
26/09:30am - - - - - S 28 33 15 18 1019.8 1019.8 -
26/09:00am - - - - - S 28 32 15 17 1019.7 1019.7 -
26/08:30am - - - - - S 26 32 14 17 1019.4 1019.4 -
26/08:00am - - - - - S 24 30 13 16 1019.0 1019.0 -
26/07:30am - - - - - S 20 30 11 16 1018.8 1018.8 -
26/07:00am - - - - - S 19 26 10 14 1018.7 1018.7 -
26/06:30am - - - - - S 20 30 11 16 1018.2 1018.2 -
26/06:00am - - - - - S 19 26 10 14 1017.9 1017.9 -
26/05:30am - - - - - S 24 33 13 18 1017.8 1017.8 -
26/05:00am - - - - - S 20 28 11 15 1017.6 1017.6 -
26/04:30am - - - - - S 13 19 7 10 1017.5 1017.5 -
26/04:00am - - - - - S 19 32 10 17 1017.7 1017.7 -
26/03:30am - - - - - ESE 26 43 14 23 1017.4 1017.4 -
26/03:00am - - - - - SE 20 35 11 19 1017.6 1017.6 -
26/02:30am - - - - - SE 24 41 13 22 1017.8 1017.8 -
26/02:00am - - - - - SE 24 39 13 21 1018.0 1018.0 -
26/01:30am - - - - - SE 26 41 14 22 1018.4 1018.4 -
26/01:00am - - - - - SE 26 39 14 21 1018.5 1018.5 -
26/12:30am - - - - - SE 24 37 13 20 1018.7 1018.7 -
26/12:00am - - - - - SE 24 35 13 19 1019.0 1019.0 -
 
Date/Time
EST
Temp
°C
App
Temp
°C
Dew
Point
°C
Rel
Hum
%
Delta-T
°C
Wind Press
QNH
hPa
Press
MSL
hPa
Rain since
9am
mm
Dir  Spd
km/h
Gust
km/h
Spd
kts
Gust
kts
25/11:30pm - - - - - SE 24 35 13 19 1019.1 1019.1 -
25/11:00pm - - - - - SE 22 37 12 20 1019.3 1019.3 -
25/10:30pm - - - - - SE 24 39 13 21 1019.5 1019.5 -
25/10:00pm - - - - - SE 20 35 11 19 1019.5 1019.5 -
25/09:30pm - - - - - SE 20 33 11 18 1019.5 1019.5 -
25/09:00pm - - - - - SE 22 35 12 19 1019.4 1019.4 -
25/08:30pm - - - - - SE 19 32 10 17 1019.2 1019.2 -
25/08:00pm - - - - - SE 20 35 11 19 1018.9 1018.9 -
25/07:30pm - - - - - SE 17 32 9 17 1018.5 1018.5 -
25/07:00pm - - - - - SE 22 33 12 18 1018.3 1018.3 -
25/06:30pm - - - - - SE 22 35 12 19 1017.9 1017.9 -
25/06:00pm - - - - - SE 22 35 12 19 1017.7 1017.7 -
25/05:30pm - - - - - SE 22 35 12 19 1017.5 1017.5 -
25/05:00pm - - - - - SE 22 35 12 19 1017.4 1017.4 -
25/04:30pm - - - - - SE 20 33 11 18 1017.0 1017.0 -
25/04:00pm - - - - - SE 19 30 10 16 1017.0 1017.0 -
25/03:30pm - - - - - SE 17 26 9 14 1016.9 1016.9 -
25/03:00pm - - - - - SE 17 26 9 14 1017.0 1017.0 -
25/02:30pm - - - - - SSE 13 20 7 11 1017.2 1017.2 -
25/02:00pm - - - - - SSE 13 20 7 11 1017.4 1017.4 -
25/01:30pm - - - - - S 17 26 9 14 1017.7 1017.7 -
25/01:00pm - - - - - S 13 30 7 16 1017.9 1017.9 -
25/12:30pm - - - - - S 15 24 8 13 1018.4 1018.4 -
25/12:00pm - - - - - S 24 33 13 18 1018.8 1018.8 -
25/11:30am - - - - - S 19 32 10 17 1019.0 1019.0 -
25/11:00am - - - - - S 26 30 14 16 1019.3 1019.3 -
25/10:30am - - - - - S 28 32 15 17 1019.5 1019.5 -
25/10:00am - - - - - S 26 33 14 18 1019.7 1019.7 -
25/09:30am - - - - - S 22 32 12 17 1019.8 1019.8 -
25/09:00am - - - - - S 26 32 14 17 1019.6 1019.6 -
25/08:30am - - - - - S 26 33 14 18 1019.4 1019.4 -
25/08:00am - - - - - S 19 28 10 15 1019.4 1019.4 -
25/07:30am - - - - - S 28 35 15 19 1018.9 1018.9 -
25/07:00am - - - - - S 19 28 10 15 1018.8 1018.8 -
25/06:30am - - - - - S 13 20 7 11 1018.3 1018.3 -
25/06:00am - - - - - S 13 20 7 11 1018.1 1018.1 -
25/05:30am - - - - - SSE 13 20 7 11 1017.8 1017.8 -
25/05:00am - - - - - SSE 17 30 9 16 1017.7 1017.7 -
25/04:30am - - - - - SE 20 30 11 16 1017.7 1017.7 -
25/04:00am - - - - - SSE 19 35 10 19 1017.7 1017.7 -
25/03:30am - - - - - S 15 22 8 12 1017.7 1017.7 -
25/03:00am - - - - - SSE 17 26 9 14 1017.8 1017.8 -
25/02:30am - - - - - SE 17 30 9 16 1018.0 1018.0 -
25/02:00am - - - - - SSE 17 28 9 15 1018.3 1018.3 -
25/01:30am - - - - - SSE 17 28 9 15 1018.6 1018.6 -
25/01:00am - - - - - SSE 19 35 10 19 1018.8 1018.8 -
25/12:30am - - - - - SE 24 35 13 19 1018.8 1018.8 -
25/12:00am - - - - - SE 24 35 13 19 1019.1 1019.1 -
 
Date/Time
EST
Temp
°C
App
Temp
°C
Dew
Point
°C
Rel
Hum
%
Delta-T
°C
Wind Press
QNH
hPa
Press
MSL
hPa
Rain since
9am
mm
Dir  Spd
km/h
Gust
km/h
Spd
kts
Gust
kts
24/11:30pm - - - - - SE 19 33 10 18 1019.1 1019.1 -
24/11:00pm - - - - - ESE 22 41 12 22 1019.2 1019.2 -
24/10:30pm - - - - - SE 19 35 10 19 1019.1 1019.1 -
24/10:00pm - - - - - SE 20 35 11 19 1019.3 1019.3 -
24/09:30pm - - - - - SE 17 32 9 17 1019.2 1019.2 -
24/09:00pm - - - - - SSE 17 30 9 16 1019.2 1019.2 -
24/08:30pm - - - - - SE 22 32 12 17 1018.9 1018.9 -
24/08:00pm - - - - - ESE 22 37 12 20 1018.4 1018.4 -
24/07:30pm - - - - - SE 24 37 13 20 1018.0 1018.0 -
24/07:00pm - - - - - SE 20 35 11 19 1017.9 1017.9 -
24/06:30pm - - - - - SE 20 37 11 20 1017.6 1017.6 -
24/06:00pm - - - - - ESE 22 37 12 20 1017.2 1017.2 -
24/05:30pm - - - - - ENE 28 37 15 20 1017.0 1017.0 -
24/05:00pm - - - - - ESE 32 48 17 26 1016.8 1016.8 -
24/04:58pm - - - - - ESE 28 48 15 26 1016.8 1016.8 -
24/04:30pm - - - - - ESE 20 35 11 19 1016.6 1016.6 -
24/04:00pm - - - - - ESE 13 22 7 12 1016.7 1016.7 -
24/03:30pm - - - - - ESE 19 30 10 16 1016.9 1016.9 -
24/03:00pm - - - - - SE 13 26 7 14 1016.6 1016.6 -
24/02:30pm - - - - - SE 15 28 8 15 1016.9 1016.9 -
24/02:00pm - - - - - ESE 19 33 10 18 1016.9 1016.9 -
24/01:30pm - - - - - S 11 17 6 9 1017.0 1017.0 -
24/01:00pm - - - - - SSE 13 24 7 13 1017.5 1017.5 -
24/12:30pm - - - - - SE 15 28 8 15 1017.6 1017.6 -
24/12:00pm - - - - - SE 15 26 8 14 1018.1 1018.1 -
24/11:30am - - - - - SSE 17 30 9 16 1018.2 1018.2 -
24/11:00am - - - - - SE 17 30 9 16 1018.3 1018.3 -
24/10:30am - - - - - ESE 20 35 11 19 1018.4 1018.4 -
24/10:00am - - - - - SSE 15 30 8 16 1018.4 1018.4 -
24/09:30am - - - - - SSE 15 24 8 13 1018.4 1018.4 -
24/09:00am - - - - - SE 17 30 9 16 1018.3 1018.3 -
24/08:30am - - - - - SSE 13 20 7 11 1018.0 1018.0 -
24/08:00am - - - - - S 17 24 9 13 1018.0 1018.0 -
24/07:30am - - - - - S 20 30 11 16 1017.9 1017.9 -
24/07:00am - - - - - SE 24 43 13 23 1017.6 1017.6 -

Other formats

Comma delimited format used in spreadsheet applications
http://www.bom.gov.au/fwo/IDQ60801/IDQ60801.94295.axf

JavaScript Object Notation format (JSON) in row-major order
http://www.bom.gov.au/fwo/IDQ60801/IDQ60801.94295.json

Data quality

Most of these data are generated automatically and are frequently updated. Quality checks on data are not normally performed. It is possible for incorrect values to appear. Refer to information at About Latest Weather Observations and please check the disclaimer before using these data.